Impacts METAR Board INFO
IDs:

KPHL - Philadelphia Intl, PA, US

Updated at: 2301 UTC 21 Nov 2017
Potential Impact None Slight Moderate High
Time21/11Z 21/12Z 21/13Z 21/14Z 21/15Z 21/16Z 21/17Z 21/18Z 21/19Z 21/20Z 21/21Z 21/22Z 21/23Z
VIS10 10 10 10 10 10 10 10 10 10 10 10 10
CIG-- -- -- -- 280 280 280 240 220 270 250 250 250
CoverFEWSCTSCTSCTBKNBKNBKNBKNBKNBKNBKNBKNBKN
FltCatVFRVFRVFRVFRVFRVFRVFRVFRVFRVFRVFRVFRVFR
WX--------------------------
WDir200190180210230230210200220210200190200
WSpd7 4 7 13 16 19 15 13 11 17 10 8 11
WGst-- -- -- -- 21 26 -- 22 -- 22 -- 15 --
Raw hourly METARs
KPHL 211054Z 20007KT 10SM FEW250 06/M01 A3015 RMK AO2 SLP207 T00561006 $
KPHL 211154Z 19004KT 10SM SCT280 05/M01 A3015 RMK AO2 SLP207 T00501006 10061 20044 53001 $
KPHL 211254Z 18007KT 10SM SCT280 06/01 A3015 RMK AO2 SLP209 T00560006 $
KPHL 211354Z 21013KT 10SM SCT280 09/00 A3015 RMK AO2 SLP207 T00890000
KPHL 211454Z 23016G21KT 10SM BKN280 11/M01 A3014 RMK AO2 SLP206 T01111006 58001
KPHL 211554Z 23019G26KT 10SM BKN280 13/M01 A3012 RMK AO2 PK WND 23026/1553 SLP199 T01281011
KPHL 211654Z 21015KT 10SM BKN280 13/M01 A3010 RMK AO2 PK WND 22029/1601 SLP193 T01331006
KPHL 211754Z 20013G22KT 10SM BKN240 14/M02 A3008 RMK AO2 PK WND 22028/1657 SLP185 T01391017 10139 20044 58021
KPHL 211854Z 22011KT 10SM BKN220 BKN260 14/M02 A3004 RMK AO2 SLP172 T01441022
KPHL 211954Z 21017G22KT 10SM SCT240 BKN270 15/00 A3002 RMK AO2 SLP166 T01500000
KPHL 212054Z 20010KT 10SM BKN250 14/01 A3004 RMK AO2 SLP171 T01440011 55014
KPHL 212154Z 19008G15KT 10SM BKN250 13/02 A3003 RMK AO2 SLP170 T01280022
KPHL 212254Z 20011KT 10SM BKN250 12/03 A3004 RMK AO2 SLP171 T01220033